sensor_id;sensor_type;location;lat;lon;timestamp;P1;durP1;ratioP1;P2;durP2;ratioP2
64651;SDS011;51062;45.120;37.660;2022-09-09T00:02:01;26.83;;;8.55;;
64651;SDS011;51062;45.120;37.660;2022-09-09T00:04:36;10.95;;;6.65;;
64651;SDS011;51062;45.120;37.660;2022-09-09T00:15:25;14.38;;;6.28;;
64651;SDS011;51062;45.120;37.660;2022-09-09T00:21:05;11.05;;;5.97;;
64651;SDS011;51062;45.120;37.660;2022-09-09T00:23:39;14.02;;;7.82;;
64651;SDS011;51062;45.120;37.660;2022-09-09T00:31:38;12.32;;;6.53;;
64651;SDS011;51062;45.120;37.660;2022-09-09T00:34:11;15.27;;;8.70;;
64651;SDS011;51062;45.120;37.660;2022-09-09T00:36:44;18.25;;;8.40;;
64651;SDS011;51062;45.120;37.660;2022-09-09T00:39:37;19.35;;;8.52;;
64651;SDS011;51062;45.120;37.660;2022-09-09T00:42:12;15.82;;;9.10;;
64651;SDS011;51062;45.120;37.660;2022-09-09T00:44:46;18.67;;;8.10;;
64651;SDS011;51062;45.120;37.660;2022-09-09T00:52:23;19.15;;;10.30;;
64651;SDS011;51062;45.120;37.660;2022-09-09T00:55:25;20.40;;;12.02;;
64651;SDS011;51062;45.120;37.660;2022-09-09T00:58:01;28.45;;;12.45;;
64651;SDS011;51062;45.120;37.660;2022-09-09T01:00:31;26.80;;;14.75;;
64651;SDS011;51062;45.120;37.660;2022-09-09T01:11:17;31.92;;;15.27;;
64651;SDS011;51062;45.120;37.660;2022-09-09T01:13:49;26.95;;;14.95;;
64651;SDS011;51062;45.120;37.660;2022-09-09T01:16:28;28.25;;;15.65;;
64651;SDS011;51062;45.120;37.660;2022-09-09T01:18:57;27.35;;;13.93;;
64651;SDS011;51062;45.120;37.660;2022-09-09T01:21:40;22.70;;;13.38;;
64651;SDS011;51062;45.120;37.660;2022-09-09T01:28:01;24.55;;;11.82;;
64651;SDS011;51062;45.120;37.660;2022-09-09T01:30:37;25.30;;;12.50;;
64651;SDS011;51062;45.120;37.660;2022-09-09T01:33:13;22.38;;;10.18;;
64651;SDS011;51062;45.120;37.660;2022-09-09T01:38:15;19.15;;;10.23;;
64651;SDS011;51062;45.120;37.660;2022-09-09T01:40:42;21.45;;;10.55;;
64651;SDS011;51062;45.120;37.660;2022-09-09T01:43:10;26.02;;;11.93;;
64651;SDS011;51062;45.120;37.660;2022-09-09T01:45:39;27.60;;;12.65;;
64651;SDS011;51062;45.120;37.660;2022-09-09T01:48:29;32.83;;;15.88;;
64651;SDS011;51062;45.120;37.660;2022-09-09T01:51:02;30.80;;;16.80;;
64651;SDS011;51062;45.120;37.660;2022-09-09T01:53:29;36.78;;;20.02;;
64651;SDS011;51062;45.120;37.660;2022-09-09T01:56:04;40.17;;;20.88;;
64651;SDS011;51062;45.120;37.660;2022-09-09T02:04:54;47.47;;;24.02;;
64651;SDS011;51062;45.120;37.660;2022-09-09T02:07:38;41.88;;;21.80;;
64651;SDS011;51062;45.120;37.660;2022-09-09T02:10:21;39.67;;;20.77;;
64651;SDS011;51062;45.120;37.660;2022-09-09T02:13:14;42.60;;;19.35;;
64651;SDS011;51062;45.120;37.660;2022-09-09T02:19:08;32.10;;;15.57;;
64651;SDS011;51062;45.120;37.660;2022-09-09T02:22:01;29.35;;;16.10;;
64651;SDS011;51062;45.120;37.660;2022-09-09T02:24:30;29.17;;;15.80;;
64651;SDS011;51062;45.120;37.660;2022-09-09T02:27:11;27.85;;;15.63;;
64651;SDS011;51062;45.120;37.660;2022-09-09T02:29:42;30.10;;;15.00;;
64651;SDS011;51062;45.120;37.660;2022-09-09T02:32:21;31.38;;;15.73;;
64651;SDS011;51062;45.120;37.660;2022-09-09T02:34:51;29.60;;;17.33;;
64651;SDS011;51062;45.120;37.660;2022-09-09T02:37:23;31.60;;;17.85;;
64651;SDS011;51062;45.120;37.660;2022-09-09T02:39:55;29.50;;;17.60;;
64651;SDS011;51062;45.120;37.660;2022-09-09T02:42:23;32.25;;;16.27;;
64651;SDS011;51062;45.120;37.660;2022-09-09T02:44:52;26.50;;;14.30;;
64651;SDS011;51062;45.120;37.660;2022-09-09T02:50:12;39.95;;;13.52;;
64651;SDS011;51062;45.120;37.660;2022-09-09T02:58:10;23.92;;;13.00;;
64651;SDS011;51062;45.120;37.660;2022-09-09T03:00:46;32.22;;;17.15;;
64651;SDS011;51062;45.120;37.660;2022-09-09T03:03:14;65.28;;;15.43;;
64651;SDS011;51062;45.120;37.660;2022-09-09T03:05:43;31.35;;;15.95;;
64651;SDS011;51062;45.120;37.660;2022-09-09T03:08:11;32.67;;;16.02;;
64651;SDS011;51062;45.120;37.660;2022-09-09T03:10:39;32.08;;;14.82;;
64651;SDS011;51062;45.120;37.660;2022-09-09T03:13:05;22.45;;;12.45;;
64651;SDS011;51062;45.120;37.660;2022-09-09T03:15:37;29.65;;;10.38;;
64651;SDS011;51062;45.120;37.660;2022-09-09T03:18:05;20.48;;;9.30;;
64651;SDS011;51062;45.120;37.660;2022-09-09T03:20:33;21.95;;;10.48;;
64651;SDS011;51062;45.120;37.660;2022-09-09T03:22:59;29.08;;;9.85;;
64651;SDS011;51062;45.120;37.660;2022-09-09T03:25:27;28.92;;;9.50;;
64651;SDS011;51062;45.120;37.660;2022-09-09T03:27:54;33.33;;;10.05;;
64651;SDS011;51062;45.120;37.660;2022-09-09T03:30:23;25.73;;;7.75;;
64651;SDS011;51062;45.120;37.660;2022-09-09T03:32:50;10.13;;;5.25;;
64651;SDS011;51062;45.120;37.660;2022-09-09T03:35:17;26.02;;;5.95;;
64651;SDS011;51062;45.120;37.660;2022-09-09T03:37:44;15.52;;;6.10;;
64651;SDS011;51062;45.120;37.660;2022-09-09T03:40:12;12.77;;;5.60;;
64651;SDS011;51062;45.120;37.660;2022-09-09T03:42:38;18.45;;;10.32;;
64651;SDS011;51062;45.120;37.660;2022-09-09T03:45:09;53.47;;;28.30;;
64651;SDS011;51062;45.120;37.660;2022-09-09T03:47:38;106.60;;;46.95;;
64651;SDS011;51062;45.120;37.660;2022-09-09T03:50:06;371.48;;;140.63;;
64651;SDS011;51062;45.120;37.660;2022-09-09T03:52:37;1070.60;;;505.13;;
64651;SDS011;51062;45.120;37.660;2022-09-09T03:55:07;398.17;;;141.93;;
64651;SDS011;51062;45.120;37.660;2022-09-09T03:57:34;354.55;;;109.63;;
64651;SDS011;51062;45.120;37.660;2022-09-09T04:00:03;282.83;;;84.68;;
64651;SDS011;51062;45.120;37.660;2022-09-09T04:02:42;113.40;;;27.77;;
64651;SDS011;51062;45.120;37.660;2022-09-09T04:05:12;182.65;;;51.40;;
64651;SDS011;51062;45.120;37.660;2022-09-09T04:07:43;187.88;;;57.92;;
64651;SDS011;51062;45.120;37.660;2022-09-09T04:10:10;197.23;;;67.22;;
64651;SDS011;51062;45.120;37.660;2022-09-09T04:12:38;235.10;;;69.57;;
64651;SDS011;51062;45.120;37.660;2022-09-09T04:15:04;218.98;;;65.22;;
64651;SDS011;51062;45.120;37.660;2022-09-09T04:17:33;121.22;;;38.25;;
64651;SDS011;51062;45.120;37.660;2022-09-09T04:19:59;214.02;;;62.95;;
64651;SDS011;51062;45.120;37.660;2022-09-09T04:22:28;193.23;;;55.70;;
64651;SDS011;51062;45.120;37.660;2022-09-09T04:24:55;139.95;;;39.70;;
64651;SDS011;51062;45.120;37.660;2022-09-09T04:27:22;166.43;;;51.20;;
64651;SDS011;51062;45.120;37.660;2022-09-09T04:29:48;118.47;;;36.38;;
64651;SDS011;51062;45.120;37.660;2022-09-09T04:32:15;59.42;;;16.13;;
64651;SDS011;51062;45.120;37.660;2022-09-09T04:34:42;34.80;;;12.15;;
64651;SDS011;51062;45.120;37.660;2022-09-09T04:37:08;40.42;;;11.90;;
64651;SDS011;51062;45.120;37.660;2022-09-09T04:39:36;42.53;;;16.00;;
64651;SDS011;51062;45.120;37.660;2022-09-09T04:42:04;45.13;;;14.77;;
64651;SDS011;51062;45.120;37.660;2022-09-09T04:44:31;51.65;;;14.77;;
64651;SDS011;51062;45.120;37.660;2022-09-09T04:46:58;314.10;;;31.23;;
64651;SDS011;51062;45.120;37.660;2022-09-09T04:49:25;82.88;;;15.35;;
64651;SDS011;51062;45.120;37.660;2022-09-09T04:51:51;50.17;;;14.15;;
64651;SDS011;51062;45.120;37.660;2022-09-09T04:54:18;32.17;;;12.52;;
64651;SDS011;51062;45.120;37.660;2022-09-09T04:56:45;37.90;;;10.98;;
64651;SDS011;51062;45.120;37.660;2022-09-09T04:59:11;23.02;;;7.93;;
64651;SDS011;51062;45.120;37.660;2022-09-09T05:01:44;41.90;;;8.10;;
64651;SDS011;51062;45.120;37.660;2022-09-09T05:04:11;46.45;;;6.75;;
64651;SDS011;51062;45.120;37.660;2022-09-09T05:06:37;29.88;;;5.25;;
64651;SDS011;51062;45.120;37.660;2022-09-09T05:09:04;14.32;;;3.75;;
64651;SDS011;51062;45.120;37.660;2022-09-09T05:11:31;18.45;;;3.72;;
64651;SDS011;51062;45.120;37.660;2022-09-09T05:14:17;13.57;;;2.95;;
64651;SDS011;51062;45.120;37.660;2022-09-09T05:16:46;11.43;;;2.15;;
64651;SDS011;51062;45.120;37.660;2022-09-09T05:19:13;13.63;;;2.97;;
64651;SDS011;51062;45.120;37.660;2022-09-09T05:21:45;5.80;;;2.53;;
64651;SDS011;51062;45.120;37.660;2022-09-09T05:24:14;5.75;;;2.30;;
64651;SDS011;51062;45.120;37.660;2022-09-09T05:26:43;5.97;;;2.28;;
64651;SDS011;51062;45.120;37.660;2022-09-09T05:29:11;10.80;;;2.80;;
64651;SDS011;51062;45.120;37.660;2022-09-09T05:31:37;3.13;;;1.30;;
64651;SDS011;51062;45.120;37.660;2022-09-09T05:34:09;8.15;;;1.95;;
64651;SDS011;51062;45.120;37.660;2022-09-09T05:36:35;3.03;;;1.30;;
64651;SDS011;51062;45.120;37.660;2022-09-09T05:39:02;2.88;;;1.38;;
64651;SDS011;51062;45.120;37.660;2022-09-09T05:41:32;3.70;;;1.65;;
64651;SDS011;51062;45.120;37.660;2022-09-09T05:44:01;6.40;;;2.33;;
64651;SDS011;51062;45.120;37.660;2022-09-09T05:46:32;4.10;;;1.50;;
64651;SDS011;51062;45.120;37.660;2022-09-09T05:48:58;7.20;;;1.67;;
64651;SDS011;51062;45.120;37.660;2022-09-09T05:51:29;6.70;;;1.70;;
64651;SDS011;51062;45.120;37.660;2022-09-09T05:53:57;11.00;;;2.03;;
64651;SDS011;51062;45.120;37.660;2022-09-09T05:56:26;4.55;;;1.70;;
64651;SDS011;51062;45.120;37.660;2022-09-09T05:58:55;6.95;;;1.70;;
64651;SDS011;51062;45.120;37.660;2022-09-09T06:01:41;112.72;;;5.03;;
64651;SDS011;51062;45.120;37.660;2022-09-09T06:04:16;438.00;;;24.02;;
64651;SDS011;51062;45.120;37.660;2022-09-09T06:06:43;14.65;;;1.60;;
64651;SDS011;51062;45.120;37.660;2022-09-09T06:09:13;5.90;;;1.92;;
64651;SDS011;51062;45.120;37.660;2022-09-09T06:11:42;13.93;;;2.05;;
64651;SDS011;51062;45.120;37.660;2022-09-09T06:14:11;3.13;;;1.70;;
64651;SDS011;51062;45.120;37.660;2022-09-09T06:16:38;4.57;;;1.92;;
64651;SDS011;51062;45.120;37.660;2022-09-09T06:19:23;4.20;;;1.90;;
64651;SDS011;51062;45.120;37.660;2022-09-09T06:21:53;9.48;;;1.80;;
64651;SDS011;51062;45.120;37.660;2022-09-09T06:24:20;6.88;;;2.00;;
64651;SDS011;51062;45.120;37.660;2022-09-09T06:26:46;5.40;;;1.90;;
64651;SDS011;51062;45.120;37.660;2022-09-09T06:29:18;4.60;;;2.08;;
64651;SDS011;51062;45.120;37.660;2022-09-09T06:31:45;4.78;;;1.90;;
64651;SDS011;51062;45.120;37.660;2022-09-09T06:34:20;10.43;;;2.13;;
64651;SDS011;51062;45.120;37.660;2022-09-09T06:36:50;6.38;;;1.83;;
64651;SDS011;51062;45.120;37.660;2022-09-09T06:39:17;4.57;;;1.60;;
64651;SDS011;51062;45.120;37.660;2022-09-09T06:41:44;4.57;;;1.90;;
64651;SDS011;51062;45.120;37.660;2022-09-09T06:44:33;16.13;;;2.42;;
64651;SDS011;51062;45.120;37.660;2022-09-09T06:47:00;4.28;;;1.63;;
64651;SDS011;51062;45.120;37.660;2022-09-09T06:49:26;7.03;;;1.75;;
64651;SDS011;51062;45.120;37.660;2022-09-09T06:51:52;4.95;;;1.80;;
64651;SDS011;51062;45.120;37.660;2022-09-09T06:54:20;4.28;;;2.10;;
64651;SDS011;51062;45.120;37.660;2022-09-09T07:00:45;4.40;;;1.97;;
64651;SDS011;51062;45.120;37.660;2022-09-09T07:03:11;4.35;;;1.95;;
64651;SDS011;51062;45.120;37.660;2022-09-09T07:05:38;6.85;;;2.08;;
64651;SDS011;51062;45.120;37.660;2022-09-09T07:08:05;4.97;;;2.13;;
64651;SDS011;51062;45.120;37.660;2022-09-09T07:10:31;3.72;;;1.75;;
64651;SDS011;51062;45.120;37.660;2022-09-09T07:13:00;3.28;;;1.65;;
64651;SDS011;51062;45.120;37.660;2022-09-09T07:15:27;5.93;;;2.08;;
64651;SDS011;51062;45.120;37.660;2022-09-09T07:17:54;25.42;;;2.70;;
64651;SDS011;51062;45.120;37.660;2022-09-09T07:20:20;44.00;;;3.67;;
64651;SDS011;51062;45.120;37.660;2022-09-09T07:22:47;9.52;;;2.05;;
64651;SDS011;51062;45.120;37.660;2022-09-09T07:25:13;8.60;;;2.17;;
64651;SDS011;51062;45.120;37.660;2022-09-09T07:27:42;8.15;;;2.05;;
64651;SDS011;51062;45.120;37.660;2022-09-09T07:30:09;6.22;;;2.15;;
64651;SDS011;51062;45.120;37.660;2022-09-09T07:32:35;13.20;;;3.15;;
64651;SDS011;51062;45.120;37.660;2022-09-09T07:35:01;81.88;;;5.93;;
64651;SDS011;51062;45.120;37.660;2022-09-09T07:37:28;6.90;;;1.83;;
64651;SDS011;51062;45.120;37.660;2022-09-09T07:39:54;9.57;;;1.92;;
64651;SDS011;51062;45.120;37.660;2022-09-09T07:42:21;30.70;;;2.17;;
64651;SDS011;51062;45.120;37.660;2022-09-09T07:44:48;15.38;;;2.15;;
64651;SDS011;51062;45.120;37.660;2022-09-09T07:47:16;5.72;;;1.60;;
64651;SDS011;51062;45.120;37.660;2022-09-09T07:49:45;5.05;;;1.50;;
64651;SDS011;51062;45.120;37.660;2022-09-09T07:52:13;3.22;;;1.42;;
64651;SDS011;51062;45.120;37.660;2022-09-09T07:54:43;4.65;;;1.23;;
64651;SDS011;51062;45.120;37.660;2022-09-09T07:57:11;9.13;;;2.30;;
64651;SDS011;51062;45.120;37.660;2022-09-09T07:59:38;10.90;;;1.67;;
64651;SDS011;51062;45.120;37.660;2022-09-09T08:02:04;6.22;;;1.50;;
64651;SDS011;51062;45.120;37.660;2022-09-09T08:04:33;3.55;;;1.48;;
64651;SDS011;51062;45.120;37.660;2022-09-09T08:07:01;12.18;;;1.58;;
64651;SDS011;51062;45.120;37.660;2022-09-09T08:09:32;2.38;;;1.40;;
64651;SDS011;51062;45.120;37.660;2022-09-09T08:12:21;5.13;;;1.40;;
64651;SDS011;51062;45.120;37.660;2022-09-09T08:14:50;4.47;;;1.48;;
64651;SDS011;51062;45.120;37.660;2022-09-09T08:17:17;46.95;;;2.88;;
64651;SDS011;51062;45.120;37.660;2022-09-09T08:19:43;7.82;;;1.58;;
64651;SDS011;51062;45.120;37.660;2022-09-09T08:22:15;12.30;;;1.83;;
64651;SDS011;51062;45.120;37.660;2022-09-09T08:24:41;3.40;;;1.80;;
64651;SDS011;51062;45.120;37.660;2022-09-09T08:27:08;16.17;;;1.92;;
64651;SDS011;51062;45.120;37.660;2022-09-09T08:29:36;2.35;;;1.20;;
64651;SDS011;51062;45.120;37.660;2022-09-09T08:32:03;6.95;;;1.60;;
64651;SDS011;51062;45.120;37.660;2022-09-09T08:36:24;10.37;;;1.60;;
64651;SDS011;51062;45.120;37.660;2022-09-09T08:38:53;5.88;;;1.30;;
64651;SDS011;51062;45.120;37.660;2022-09-09T08:44:23;4.10;;;1.30;;
64651;SDS011;51062;45.120;37.660;2022-09-09T08:49:45;7.32;;;1.35;;
64651;SDS011;51062;45.120;37.660;2022-09-09T08:52:30;4.60;;;1.75;;
64651;SDS011;51062;45.120;37.660;2022-09-09T08:57:52;13.63;;;2.03;;
64651;SDS011;51062;45.120;37.660;2022-09-09T09:00:23;15.13;;;2.22;;
64651;SDS011;51062;45.120;37.660;2022-09-09T09:11:53;6.45;;;1.60;;
64651;SDS011;51062;45.120;37.660;2022-09-09T09:14:31;2.28;;;1.33;;
64651;SDS011;51062;45.120;37.660;2022-09-09T09:17:06;9.90;;;1.75;;
64651;SDS011;51062;45.120;37.660;2022-09-09T09:19:41;3.30;;;1.70;;
64651;SDS011;51062;45.120;37.660;2022-09-09T09:28:07;11.35;;;1.90;;
64651;SDS011;51062;45.120;37.660;2022-09-09T09:33:16;6.80;;;1.80;;
64651;SDS011;51062;45.120;37.660;2022-09-09T09:35:49;5.43;;;1.55;;
64651;SDS011;51062;45.120;37.660;2022-09-09T09:38:18;4.75;;;1.88;;
64651;SDS011;51062;45.120;37.660;2022-09-09T09:40:50;10.68;;;1.92;;
64651;SDS011;51062;45.120;37.660;2022-09-09T09:43:26;59.75;;;4.13;;
64651;SDS011;51062;45.120;37.660;2022-09-09T09:45:59;5.07;;;1.60;;
64651;SDS011;51062;45.120;37.660;2022-09-09T09:48:28;7.15;;;1.50;;
64651;SDS011;51062;45.120;37.660;2022-09-09T09:50:57;9.68;;;1.98;;
64651;SDS011;51062;45.120;37.660;2022-09-09T09:53:29;9.65;;;1.75;;
64651;SDS011;51062;45.120;37.660;2022-09-09T09:55:59;13.75;;;1.95;;
64651;SDS011;51062;45.120;37.660;2022-09-09T09:58:29;9.35;;;1.80;;
64651;SDS011;51062;45.120;37.660;2022-09-09T10:01:00;5.93;;;1.83;;
64651;SDS011;51062;45.120;37.660;2022-09-09T10:06:05;11.75;;;1.80;;
64651;SDS011;51062;45.120;37.660;2022-09-09T10:08:33;13.65;;;3.38;;
64651;SDS011;51062;45.120;37.660;2022-09-09T10:14:18;3.15;;;1.85;;
64651;SDS011;51062;45.120;37.660;2022-09-09T10:19:34;11.23;;;1.95;;
64651;SDS011;51062;45.120;37.660;2022-09-09T10:52:01;10.05;;;1.60;;
64651;SDS011;51062;45.120;37.660;2022-09-09T10:54:49;39.40;;;3.65;;
64651;SDS011;51062;45.120;37.660;2022-09-09T10:57:31;67.72;;;4.30;;
64651;SDS011;51062;45.120;37.660;2022-09-09T11:00:06;126.15;;;5.63;;
64651;SDS011;51062;45.120;37.660;2022-09-09T11:02:44;9.45;;;1.58;;
64651;SDS011;51062;45.120;37.660;2022-09-09T11:05:18;5.18;;;1.45;;
64651;SDS011;51062;45.120;37.660;2022-09-09T11:10:29;3.55;;;1.52;;
64651;SDS011;51062;45.120;37.660;2022-09-09T11:13:18;4.88;;;1.50;;
64651;SDS011;51062;45.120;37.660;2022-09-09T11:18:43;9.73;;;1.42;;
64651;SDS011;51062;45.120;37.660;2022-09-09T11:21:22;3.17;;;1.23;;
64651;SDS011;51062;45.120;37.660;2022-09-09T11:24:03;6.07;;;1.42;;
64651;SDS011;51062;45.120;37.660;2022-09-09T11:26:41;6.68;;;1.60;;
64651;SDS011;51062;45.120;37.660;2022-09-09T11:34:38;7.15;;;1.77;;
64651;SDS011;51062;45.120;37.660;2022-09-09T11:40:17;5.57;;;1.60;;
64651;SDS011;51062;45.120;37.660;2022-09-09T11:43:10;2.65;;;1.33;;
64651;SDS011;51062;45.120;37.660;2022-09-09T11:45:42;4.78;;;1.83;;
64651;SDS011;51062;45.120;37.660;2022-09-09T11:48:27;7.68;;;2.10;;
64651;SDS011;51062;45.120;37.660;2022-09-09T11:51:09;6.30;;;1.70;;
64651;SDS011;51062;45.120;37.660;2022-09-09T11:53:50;3.47;;;1.52;;
64651;SDS011;51062;45.120;37.660;2022-09-09T11:59:27;7.97;;;1.73;;
64651;SDS011;51062;45.120;37.660;2022-09-09T12:04:35;11.30;;;3.17;;
64651;SDS011;51062;45.120;37.660;2022-09-09T12:14:56;9.52;;;3.10;;
64651;SDS011;51062;45.120;37.660;2022-09-09T12:20:34;8.07;;;2.55;;
64651;SDS011;51062;45.120;37.660;2022-09-09T12:34:02;7.50;;;1.80;;
64651;SDS011;51062;45.120;37.660;2022-09-09T12:36:35;5.97;;;2.47;;
64651;SDS011;51062;45.120;37.660;2022-09-09T12:39:16;9.10;;;3.28;;
64651;SDS011;51062;45.120;37.660;2022-09-09T12:41:52;5.55;;;1.42;;
64651;SDS011;51062;45.120;37.660;2022-09-09T12:44:23;9.00;;;2.33;;
64651;SDS011;51062;45.120;37.660;2022-09-09T12:46:51;6.88;;;1.95;;
64651;SDS011;51062;45.120;37.660;2022-09-09T12:52:35;5.15;;;1.50;;
64651;SDS011;51062;45.120;37.660;2022-09-09T12:55:04;11.45;;;1.70;;
64651;SDS011;51062;45.120;37.660;2022-09-09T12:57:35;14.73;;;1.65;;
64651;SDS011;51062;45.120;37.660;2022-09-09T13:00:08;7.20;;;1.65;;
64651;SDS011;51062;45.120;37.660;2022-09-09T13:02:45;10.52;;;1.70;;
64651;SDS011;51062;45.120;37.660;2022-09-09T13:05:23;9.50;;;1.30;;
64651;SDS011;51062;45.120;37.660;2022-09-09T13:07:52;7.13;;;1.50;;
64651;SDS011;51062;45.120;37.660;2022-09-09T13:10:28;3.63;;;1.30;;
64651;SDS011;51062;45.120;37.660;2022-09-09T13:12:58;9.40;;;2.03;;
64651;SDS011;51062;45.120;37.660;2022-09-09T13:15:26;12.00;;;1.58;;
64651;SDS011;51062;45.120;37.660;2022-09-09T13:17:59;13.05;;;1.50;;
64651;SDS011;51062;45.120;37.660;2022-09-09T13:20:30;4.32;;;1.92;;
64651;SDS011;51062;45.120;37.660;2022-09-09T13:22:57;34.65;;;13.60;;
64651;SDS011;51062;45.120;37.660;2022-09-09T13:25:27;21.67;;;7.22;;
64651;SDS011;51062;45.120;37.660;2022-09-09T13:38:37;25.48;;;7.70;;
64651;SDS011;51062;45.120;37.660;2022-09-09T13:41:07;35.85;;;11.98;;
64651;SDS011;51062;45.120;37.660;2022-09-09T13:43:37;111.50;;;30.50;;
64651;SDS011;51062;45.120;37.660;2022-09-09T13:54:10;18.13;;;4.82;;
64651;SDS011;51062;45.120;37.660;2022-09-09T13:56:37;33.03;;;11.43;;
64651;SDS011;51062;45.120;37.660;2022-09-09T13:59:06;133.63;;;47.72;;
64651;SDS011;51062;45.120;37.660;2022-09-09T14:01:36;130.85;;;35.85;;
64651;SDS011;51062;45.120;37.660;2022-09-09T14:04:03;269.92;;;83.13;;
64651;SDS011;51062;45.120;37.660;2022-09-09T14:06:32;123.75;;;38.72;;
64651;SDS011;51062;45.120;37.660;2022-09-09T14:08:58;144.82;;;44.67;;
64651;SDS011;51062;45.120;37.660;2022-09-09T14:11:24;26.80;;;9.07;;
64651;SDS011;51062;45.120;37.660;2022-09-09T14:13:51;120.22;;;36.22;;
64651;SDS011;51062;45.120;37.660;2022-09-09T14:16:17;212.85;;;50.42;;
64651;SDS011;51062;45.120;37.660;2022-09-09T14:18:44;241.75;;;56.30;;
64651;SDS011;51062;45.120;37.660;2022-09-09T14:21:11;223.52;;;44.80;;
64651;SDS011;51062;45.120;37.660;2022-09-09T14:23:38;168.57;;;42.85;;
64651;SDS011;51062;45.120;37.660;2022-09-09T14:26:04;61.45;;;17.42;;
64651;SDS011;51062;45.120;37.660;2022-09-09T14:28:31;17.42;;;5.93;;
64651;SDS011;51062;45.120;37.660;2022-09-09T14:30:59;52.03;;;13.90;;
64651;SDS011;51062;45.120;37.660;2022-09-09T14:33:26;39.53;;;9.23;;
64651;SDS011;51062;45.120;37.660;2022-09-09T14:35:58;10.98;;;2.78;;
64651;SDS011;51062;45.120;37.660;2022-09-09T14:38:29;56.83;;;12.85;;
64651;SDS011;51062;45.120;37.660;2022-09-09T14:40:57;66.60;;;21.13;;
64651;SDS011;51062;45.120;37.660;2022-09-09T14:43:24;10.82;;;2.40;;
64651;SDS011;51062;45.120;37.660;2022-09-09T14:45:50;5.55;;;1.90;;
64651;SDS011;51062;45.120;37.660;2022-09-09T14:48:19;13.30;;;2.40;;
64651;SDS011;51062;45.120;37.660;2022-09-09T14:50:45;11.23;;;2.20;;
64651;SDS011;51062;45.120;37.660;2022-09-09T14:53:11;11.00;;;2.40;;
64651;SDS011;51062;45.120;37.660;2022-09-09T14:55:37;14.38;;;2.40;;
64651;SDS011;51062;45.120;37.660;2022-09-09T14:58:04;10.10;;;2.15;;
64651;SDS011;51062;45.120;37.660;2022-09-09T15:00:31;81.10;;;5.05;;
64651;SDS011;51062;45.120;37.660;2022-09-09T15:02:57;13.05;;;2.80;;
64651;SDS011;51062;45.120;37.660;2022-09-09T15:05:23;22.67;;;2.97;;
64651;SDS011;51062;45.120;37.660;2022-09-09T15:07:50;6.32;;;2.13;;
64651;SDS011;51062;45.120;37.660;2022-09-09T15:10:36;11.60;;;1.85;;
64651;SDS011;51062;45.120;37.660;2022-09-09T15:13:03;7.40;;;2.13;;
64651;SDS011;51062;45.120;37.660;2022-09-09T15:15:30;5.30;;;2.00;;
64651;SDS011;51062;45.120;37.660;2022-09-09T15:17:57;12.00;;;2.17;;
64651;SDS011;51062;45.120;37.660;2022-09-09T15:20:23;6.63;;;1.63;;
64651;SDS011;51062;45.120;37.660;2022-09-09T15:22:49;6.18;;;1.50;;
64651;SDS011;51062;45.120;37.660;2022-09-09T15:25:17;7.47;;;1.63;;
64651;SDS011;51062;45.120;37.660;2022-09-09T15:27:43;11.13;;;2.15;;
64651;SDS011;51062;45.120;37.660;2022-09-09T15:30:11;7.13;;;1.90;;
64651;SDS011;51062;45.120;37.660;2022-09-09T15:32:38;16.83;;;1.95;;
64651;SDS011;51062;45.120;37.660;2022-09-09T15:35:05;13.35;;;1.70;;
64651;SDS011;51062;45.120;37.660;2022-09-09T15:37:31;14.75;;;1.67;;
64651;SDS011;51062;45.120;37.660;2022-09-09T15:39:57;23.35;;;1.90;;
64651;SDS011;51062;45.120;37.660;2022-09-09T15:42:26;17.45;;;1.83;;
64651;SDS011;51062;45.120;37.660;2022-09-09T15:44:52;12.25;;;1.38;;
64651;SDS011;51062;45.120;37.660;2022-09-09T15:47:20;13.98;;;1.60;;
64651;SDS011;51062;45.120;37.660;2022-09-09T15:49:46;12.65;;;1.98;;
64651;SDS011;51062;45.120;37.660;2022-09-09T15:52:12;15.57;;;2.45;;
64651;SDS011;51062;45.120;37.660;2022-09-09T15:54:38;28.45;;;9.88;;
64651;SDS011;51062;45.120;37.660;2022-09-09T15:57:05;47.05;;;10.45;;
64651;SDS011;51062;45.120;37.660;2022-09-09T15:59:33;49.55;;;15.52;;
64651;SDS011;51062;45.120;37.660;2022-09-09T16:02:00;104.32;;;37.22;;
64651;SDS011;51062;45.120;37.660;2022-09-09T16:04:27;109.22;;;39.50;;
64651;SDS011;51062;45.120;37.660;2022-09-09T16:06:55;102.47;;;36.33;;
64651;SDS011;51062;45.120;37.660;2022-09-09T16:09:24;63.60;;;24.55;;
64651;SDS011;51062;45.120;37.660;2022-09-09T16:11:51;53.78;;;17.67;;
64651;SDS011;51062;45.120;37.660;2022-09-09T16:14:19;41.47;;;12.20;;
64651;SDS011;51062;45.120;37.660;2022-09-09T16:16:45;35.92;;;9.75;;
64651;SDS011;51062;45.120;37.660;2022-09-09T16:19:12;38.60;;;8.75;;
64651;SDS011;51062;45.120;37.660;2022-09-09T16:21:39;31.60;;;7.82;;
64651;SDS011;51062;45.120;37.660;2022-09-09T16:24:10;16.75;;;5.65;;
64651;SDS011;51062;45.120;37.660;2022-09-09T16:26:39;25.67;;;5.72;;
64651;SDS011;51062;45.120;37.660;2022-09-09T16:29:08;31.85;;;5.32;;
64651;SDS011;51062;45.120;37.660;2022-09-09T16:31:34;20.15;;;5.30;;
64651;SDS011;51062;45.120;37.660;2022-09-09T16:34:03;45.60;;;9.48;;
64651;SDS011;51062;45.120;37.660;2022-09-09T16:36:30;66.30;;;14.52;;
64651;SDS011;51062;45.120;37.660;2022-09-09T16:39:00;198.00;;;57.65;;
64651;SDS011;51062;45.120;37.660;2022-09-09T16:41:31;305.92;;;89.65;;
64651;SDS011;51062;45.120;37.660;2022-09-09T16:43:59;210.85;;;68.65;;
64651;SDS011;51062;45.120;37.660;2022-09-09T16:46:28;139.05;;;44.40;;
64651;SDS011;51062;45.120;37.660;2022-09-09T16:48:58;133.00;;;45.22;;
64651;SDS011;51062;45.120;37.660;2022-09-09T16:51:29;331.33;;;101.68;;
64651;SDS011;51062;45.120;37.660;2022-09-09T16:53:58;432.67;;;137.18;;
64651;SDS011;51062;45.120;37.660;2022-09-09T16:56:26;396.27;;;126.80;;
64651;SDS011;51062;45.120;37.660;2022-09-09T16:58:55;293.92;;;87.82;;
64651;SDS011;51062;45.120;37.660;2022-09-09T17:01:23;264.83;;;80.68;;
64651;SDS011;51062;45.120;37.660;2022-09-09T17:03:54;248.68;;;72.63;;
64651;SDS011;51062;45.120;37.660;2022-09-09T17:06:21;230.38;;;66.95;;
64651;SDS011;51062;45.120;37.660;2022-09-09T17:08:47;213.23;;;58.17;;
64651;SDS011;51062;45.120;37.660;2022-09-09T17:11:16;189.25;;;58.75;;
64651;SDS011;51062;45.120;37.660;2022-09-09T17:13:45;196.90;;;58.85;;
64651;SDS011;51062;45.120;37.660;2022-09-09T17:16:12;202.20;;;61.20;;
64651;SDS011;51062;45.120;37.660;2022-09-09T17:18:40;196.30;;;70.05;;
64651;SDS011;51062;45.120;37.660;2022-09-09T17:21:07;236.13;;;82.45;;
64651;SDS011;51062;45.120;37.660;2022-09-09T17:23:36;229.07;;;82.13;;
64651;SDS011;51062;45.120;37.660;2022-09-09T17:26:04;253.15;;;90.68;;
64651;SDS011;51062;45.120;37.660;2022-09-09T17:28:33;253.70;;;94.03;;
64651;SDS011;51062;45.120;37.660;2022-09-09T17:31:00;277.25;;;101.35;;
64651;SDS011;51062;45.120;37.660;2022-09-09T17:33:28;285.98;;;105.93;;
64651;SDS011;51062;45.120;37.660;2022-09-09T17:35:59;296.95;;;114.25;;
64651;SDS011;51062;45.120;37.660;2022-09-09T17:38:34;278.27;;;113.03;;
64651;SDS011;51062;45.120;37.660;2022-09-09T17:41:07;279.65;;;109.72;;
64651;SDS011;51062;45.120;37.660;2022-09-09T17:43:34;412.35;;;167.15;;
64651;SDS011;51062;45.120;37.660;2022-09-09T17:48:42;421.88;;;177.38;;